sensor_id;sensor_type;location;lat;lon;timestamp;pressure;altitude;pressure_sealevel;temperature;humidity
64460;BME280;50828;53.756;21.140;2023-04-08T00:03:27;100493.94;;;8.03;62.31
64460;BME280;50828;53.756;21.140;2023-04-08T00:08:37;100503.55;;;7.98;62.23
64460;BME280;50828;53.756;21.140;2023-04-08T00:13:44;100505.31;;;7.89;62.01
64460;BME280;50828;53.756;21.140;2023-04-08T00:18:52;100508.53;;;7.79;61.68
64460;BME280;50828;53.756;21.140;2023-04-08T00:23:59;100509.67;;;7.66;61.99
64460;BME280;50828;53.756;21.140;2023-04-08T00:29:07;100517.30;;;7.54;62.27
64460;BME280;50828;53.756;21.140;2023-04-08T00:34:14;100516.34;;;7.41;62.47
64460;BME280;50828;53.756;21.140;2023-04-08T00:39:22;100516.06;;;7.29;62.47
64460;BME280;50828;53.756;21.140;2023-04-08T00:44:29;100524.48;;;7.20;62.71
64460;BME280;50828;53.756;21.140;2023-04-08T00:49:37;100528.35;;;7.10;62.81
64460;BME280;50828;53.756;21.140;2023-04-08T00:54:45;100533.95;;;7.01;62.84
64460;BME280;50828;53.756;21.140;2023-04-08T00:59:53;100534.79;;;6.94;62.87
64460;BME280;50828;53.756;21.140;2023-04-08T01:05:04;100538.42;;;6.86;62.79
64460;BME280;50828;53.756;21.140;2023-04-08T01:10:14;100539.63;;;6.78;62.88
64460;BME280;50828;53.756;21.140;2023-04-08T01:15:23;100545.91;;;6.69;63.27
64460;BME280;50828;53.756;21.140;2023-04-08T01:20:32;100546.21;;;6.61;63.06
64460;BME280;50828;53.756;21.140;2023-04-08T01:30:50;100554.35;;;6.46;63.13
64460;BME280;50828;53.756;21.140;2023-04-08T01:36:00;100557.98;;;6.37;62.80
64460;BME280;50828;53.756;21.140;2023-04-08T01:41:10;100556.05;;;6.27;62.97
64460;BME280;50828;53.756;21.140;2023-04-08T01:46:18;100558.62;;;6.18;62.86
64460;BME280;50828;53.756;21.140;2023-04-08T01:51:27;100560.30;;;6.11;62.87
64460;BME280;50828;53.756;21.140;2023-04-08T01:56:40;100565.48;;;6.03;62.84
64460;BME280;50828;53.756;21.140;2023-04-08T02:01:48;100567.85;;;5.96;63.09
64460;BME280;50828;53.756;21.140;2023-04-08T02:06:57;100572.98;;;5.89;63.08
64460;BME280;50828;53.756;21.140;2023-04-08T02:12:05;100577.11;;;5.82;62.98
64460;BME280;50828;53.756;21.140;2023-04-08T02:17:16;100573.38;;;5.73;62.75
64460;BME280;50828;53.756;21.140;2023-04-08T02:22:28;100571.95;;;5.61;62.42
64460;BME280;50828;53.756;21.140;2023-04-08T02:27:40;100588.84;;;5.52;62.18
64460;BME280;50828;53.756;21.140;2023-04-08T02:32:48;100587.08;;;5.38;62.30
64460;BME280;50828;53.756;21.140;2023-04-08T02:37:56;100584.77;;;5.25;62.53
64460;BME280;50828;53.756;21.140;2023-04-08T02:43:04;100590.70;;;5.09;62.50
64460;BME280;50828;53.756;21.140;2023-04-08T02:48:12;100593.45;;;4.96;62.47
64460;BME280;50828;53.756;21.140;2023-04-08T02:53:20;100596.36;;;4.84;62.54
64460;BME280;50828;53.756;21.140;2023-04-08T02:58:28;100598.91;;;4.71;62.52
64460;BME280;50828;53.756;21.140;2023-04-08T03:03:35;100599.71;;;4.58;62.52
64460;BME280;50828;53.756;21.140;2023-04-08T03:09:06;100609.04;;;4.48;62.41
64460;BME280;50828;53.756;21.140;2023-04-08T03:14:14;100603.52;;;4.38;62.70
64460;BME280;50828;53.756;21.140;2023-04-08T03:19:22;100604.10;;;4.31;62.59
64460;BME280;50828;53.756;21.140;2023-04-08T03:24:30;100604.50;;;4.21;62.57
64460;BME280;50828;53.756;21.140;2023-04-08T03:29:37;100605.41;;;4.15;62.41
64460;BME280;50828;53.756;21.140;2023-04-08T03:34:44;100611.03;;;4.07;62.66
64460;BME280;50828;53.756;21.140;2023-04-08T03:39:52;100607.60;;;3.99;62.38
64460;BME280;50828;53.756;21.140;2023-04-08T03:44:59;100607.11;;;3.92;62.51
64460;BME280;50828;53.756;21.140;2023-04-08T03:50:08;100610.63;;;3.83;62.32
64460;BME280;50828;53.756;21.140;2023-04-08T03:55:16;100613.83;;;3.71;62.28
64460;BME280;50828;53.756;21.140;2023-04-08T04:00:24;100622.23;;;3.60;62.18
64460;BME280;50828;53.756;21.140;2023-04-08T04:05:32;100626.27;;;3.48;62.31
64460;BME280;50828;53.756;21.140;2023-04-08T04:10:40;100630.31;;;3.35;62.47
64460;BME280;50828;53.756;21.140;2023-04-08T04:15:48;100629.30;;;3.23;62.52
64460;BME280;50828;53.756;21.140;2023-04-08T04:20:56;100620.10;;;3.06;62.76
64460;BME280;50828;53.756;21.140;2023-04-08T04:26:10;100646.55;;;3.06;62.91
64460;BME280;50828;53.756;21.140;2023-04-08T04:31:21;100649.68;;;3.01;62.93
64460;BME280;50828;53.756;21.140;2023-04-08T04:36:31;100652.64;;;2.95;63.17
64460;BME280;50828;53.756;21.140;2023-04-08T04:41:40;100661.52;;;2.99;63.75
64460;BME280;50828;53.756;21.140;2023-04-08T04:46:49;100672.65;;;3.10;64.18
64460;BME280;50828;53.756;21.140;2023-04-08T04:51:57;100678.39;;;3.23;64.18
64460;BME280;50828;53.756;21.140;2023-04-08T04:57:06;100682.53;;;3.41;64.55
64460;BME280;50828;53.756;21.140;2023-04-08T05:02:14;100688.23;;;3.62;64.69
64460;BME280;50828;53.756;21.140;2023-04-08T05:07:22;100689.20;;;3.86;64.73
64460;BME280;50828;53.756;21.140;2023-04-08T05:12:30;100689.81;;;4.10;64.73
64460;BME280;50828;53.756;21.140;2023-04-08T05:17:38;100692.27;;;4.40;64.70
64460;BME280;50828;53.756;21.140;2023-04-08T05:22:46;100689.64;;;4.73;64.70
64460;BME280;50828;53.756;21.140;2023-04-08T05:27:55;100694.21;;;5.11;64.89
64460;BME280;50828;53.756;21.140;2023-04-08T05:33:07;100693.49;;;5.51;64.71
64460;BME280;50828;53.756;21.140;2023-04-08T05:38:15;100692.02;;;5.91;64.91
64460;BME280;50828;53.756;21.140;2023-04-08T05:43:23;100693.05;;;6.36;64.68
64460;BME280;50828;53.756;21.140;2023-04-08T05:48:31;100692.36;;;6.83;64.69
64460;BME280;50828;53.756;21.140;2023-04-08T05:53:39;100701.84;;;7.25;64.67
64460;BME280;50828;53.756;21.140;2023-04-08T05:58:47;100708.96;;;7.58;64.37
64460;BME280;50828;53.756;21.140;2023-04-08T06:03:58;100708.41;;;7.79;64.52
64460;BME280;50828;53.756;21.140;2023-04-08T06:09:07;100706.66;;;7.97;64.75
64460;BME280;50828;53.756;21.140;2023-04-08T06:14:15;100715.55;;;8.16;64.39
64460;BME280;50828;53.756;21.140;2023-04-08T06:19:22;100721.80;;;8.38;64.40
64460;BME280;50828;53.756;21.140;2023-04-08T06:24:30;100722.65;;;8.64;64.19
64460;BME280;50828;53.756;21.140;2023-04-08T06:29:38;100722.77;;;8.97;63.80
64460;BME280;50828;53.756;21.140;2023-04-08T06:34:48;100724.36;;;9.32;63.75
64460;BME280;50828;53.756;21.140;2023-04-08T06:39:57;100730.89;;;9.72;63.26
64460;BME280;50828;53.756;21.140;2023-04-08T06:45:07;100732.16;;;10.09;62.79
64460;BME280;50828;53.756;21.140;2023-04-08T06:50:15;100731.11;;;10.52;62.45
64460;BME280;50828;53.756;21.140;2023-04-08T06:55:23;100730.52;;;10.95;61.89
64460;BME280;50828;53.756;21.140;2023-04-08T07:00:32;100725.36;;;11.34;61.38
64460;BME280;50828;53.756;21.140;2023-04-08T07:05:41;100727.93;;;11.72;60.55
64460;BME280;50828;53.756;21.140;2023-04-08T07:10:50;100735.08;;;12.05;59.66
64460;BME280;50828;53.756;21.140;2023-04-08T07:15:58;100740.84;;;12.35;59.19
64460;BME280;50828;53.756;21.140;2023-04-08T07:21:07;100741.64;;;12.65;58.62
64460;BME280;50828;53.756;21.140;2023-04-08T07:26:16;100737.95;;;12.88;57.94
64460;BME280;50828;53.756;21.140;2023-04-08T07:31:24;100742.35;;;12.93;57.17
64460;BME280;50828;53.756;21.140;2023-04-08T07:36:33;100751.83;;;12.94;56.52
64460;BME280;50828;53.756;21.140;2023-04-08T07:41:40;100750.51;;;12.88;56.01
64460;BME280;50828;53.756;21.140;2023-04-08T07:46:48;100746.02;;;12.80;55.18
64460;BME280;50828;53.756;21.140;2023-04-08T07:51:59;100750.27;;;12.80;55.49
64460;BME280;50828;53.756;21.140;2023-04-08T07:57:07;100744.53;;;12.87;55.81
64460;BME280;50828;53.756;21.140;2023-04-08T08:02:18;100751.02;;;13.06;55.92
64460;BME280;50828;53.756;21.140;2023-04-08T08:07:25;100755.08;;;13.24;55.69
64460;BME280;50828;53.756;21.140;2023-04-08T08:12:33;100758.50;;;13.44;54.92
64460;BME280;50828;53.756;21.140;2023-04-08T08:17:41;100759.71;;;13.58;54.30
64460;BME280;50828;53.756;21.140;2023-04-08T08:22:49;100761.52;;;13.69;53.97
64460;BME280;50828;53.756;21.140;2023-04-08T08:28:02;100758.27;;;13.70;53.45
64460;BME280;50828;53.756;21.140;2023-04-08T08:33:11;100757.44;;;13.69;53.88
64460;BME280;50828;53.756;21.140;2023-04-08T08:38:24;100752.22;;;13.80;53.88
64460;BME280;50828;53.756;21.140;2023-04-08T08:43:32;100747.77;;;13.88;53.14
64460;BME280;50828;53.756;21.140;2023-04-08T08:48:40;100750.15;;;13.87;52.51
64460;BME280;50828;53.756;21.140;2023-04-08T08:53:48;100744.10;;;13.75;52.15
64460;BME280;50828;53.756;21.140;2023-04-08T08:58:56;100742.95;;;13.60;51.84
64460;BME280;50828;53.756;21.140;2023-04-08T09:04:15;100740.72;;;13.42;51.81
64460;BME280;50828;53.756;21.140;2023-04-08T09:09:24;100739.17;;;13.27;51.66
64460;BME280;50828;53.756;21.140;2023-04-08T09:14:34;100737.11;;;13.13;51.74
64460;BME280;50828;53.756;21.140;2023-04-08T09:20:05;100743.40;;;13.02;51.89
64460;BME280;50828;53.756;21.140;2023-04-08T09:25:26;100739.85;;;12.89;52.04
64460;BME280;50828;53.756;21.140;2023-04-08T09:30:33;100739.61;;;12.82;52.29
64460;BME280;50828;53.756;21.140;2023-04-08T09:35:42;100746.91;;;12.79;52.40
64460;BME280;50828;53.756;21.140;2023-04-08T09:40:51;100744.27;;;12.80;52.62
64460;BME280;50828;53.756;21.140;2023-04-08T09:46:03;100741.24;;;12.85;52.99
64460;BME280;50828;53.756;21.140;2023-04-08T09:51:18;100743.41;;;12.92;52.63
64460;BME280;50828;53.756;21.140;2023-04-08T09:56:28;100743.88;;;12.98;52.62
64460;BME280;50828;53.756;21.140;2023-04-08T10:01:41;100745.36;;;13.01;52.71
64460;BME280;50828;53.756;21.140;2023-04-08T10:06:53;100746.32;;;13.04;52.84
64460;BME280;50828;53.756;21.140;2023-04-08T10:12:06;100745.85;;;13.07;53.04
64460;BME280;50828;53.756;21.140;2023-04-08T10:17:28;100748.98;;;13.12;53.09
64460;BME280;50828;53.756;21.140;2023-04-08T10:22:51;100747.77;;;13.16;52.88
64460;BME280;50828;53.756;21.140;2023-04-08T10:28:01;100748.59;;;13.22;52.58
64460;BME280;50828;53.756;21.140;2023-04-08T10:33:14;100744.92;;;13.25;52.39
64460;BME280;50828;53.756;21.140;2023-04-08T10:38:23;100737.50;;;13.25;51.86
64460;BME280;50828;53.756;21.140;2023-04-08T10:43:34;100735.00;;;13.26;51.24
64460;BME280;50828;53.756;21.140;2023-04-08T10:48:42;100739.88;;;13.32;51.13
64460;BME280;50828;53.756;21.140;2023-04-08T10:53:50;100729.88;;;13.34;51.23
64460;BME280;50828;53.756;21.140;2023-04-08T10:58:58;100737.42;;;13.40;51.28
64460;BME280;50828;53.756;21.140;2023-04-08T11:04:12;100735.03;;;13.47;51.06
64460;BME280;50828;53.756;21.140;2023-04-08T11:09:19;100731.44;;;13.52;50.83
64460;BME280;50828;53.756;21.140;2023-04-08T11:14:26;100728.20;;;13.62;50.82
64460;BME280;50828;53.756;21.140;2023-04-08T11:19:36;100730.67;;;13.70;50.89
64460;BME280;50828;53.756;21.140;2023-04-08T11:24:45;100728.89;;;13.79;50.89
64460;BME280;50828;53.756;21.140;2023-04-08T11:29:54;100725.33;;;13.87;50.91
64460;BME280;50828;53.756;21.140;2023-04-08T11:35:03;100718.84;;;13.94;50.77
64460;BME280;50828;53.756;21.140;2023-04-08T11:40:12;100718.45;;;14.03;50.39
64460;BME280;50828;53.756;21.140;2023-04-08T11:45:21;100713.55;;;14.09;50.26
64460;BME280;50828;53.756;21.140;2023-04-08T11:50:29;100715.09;;;14.14;50.30
64460;BME280;50828;53.756;21.140;2023-04-08T11:55:36;100718.68;;;14.21;49.88
64460;BME280;50828;53.756;21.140;2023-04-08T12:00:44;100717.61;;;14.25;49.59
64460;BME280;50828;53.756;21.140;2023-04-08T12:05:52;100721.61;;;14.30;49.61
64460;BME280;50828;53.756;21.140;2023-04-08T12:11:00;100716.94;;;14.36;49.56
64460;BME280;50828;53.756;21.140;2023-04-08T12:16:24;100715.02;;;14.39;48.85
64460;BME280;50828;53.756;21.140;2023-04-08T12:21:32;100709.73;;;14.42;48.57
64460;BME280;50828;53.756;21.140;2023-04-08T12:26:39;100707.66;;;14.45;48.51
64460;BME280;50828;53.756;21.140;2023-04-08T12:31:47;100707.24;;;14.46;48.27
64460;BME280;50828;53.756;21.140;2023-04-08T12:36:55;100700.67;;;14.50;48.07
64460;BME280;50828;53.756;21.140;2023-04-08T12:42:04;100697.77;;;14.56;47.85
64460;BME280;50828;53.756;21.140;2023-04-08T12:47:12;100689.88;;;14.61;47.95
64460;BME280;50828;53.756;21.140;2023-04-08T12:52:20;100681.71;;;14.66;47.70
64460;BME280;50828;53.756;21.140;2023-04-08T12:57:28;100683.01;;;14.68;47.36
64460;BME280;50828;53.756;21.140;2023-04-08T13:02:36;100671.64;;;14.61;47.23
64460;BME280;50828;53.756;21.140;2023-04-08T13:07:44;100677.58;;;14.67;47.31
64460;BME280;50828;53.756;21.140;2023-04-08T13:12:51;100674.33;;;14.68;47.11
64460;BME280;50828;53.756;21.140;2023-04-08T13:17:59;100668.63;;;14.72;46.92
64460;BME280;50828;53.756;21.140;2023-04-08T13:23:09;100662.14;;;14.78;46.50
64460;BME280;50828;53.756;21.140;2023-04-08T13:28:20;100664.88;;;14.84;46.36
64460;BME280;50828;53.756;21.140;2023-04-08T13:33:28;100660.21;;;14.89;46.30
64460;BME280;50828;53.756;21.140;2023-04-08T13:38:36;100649.24;;;14.88;45.97
64460;BME280;50828;53.756;21.140;2023-04-08T13:43:43;100656.77;;;14.97;45.82
64460;BME280;50828;53.756;21.140;2023-04-08T13:48:51;100652.65;;;15.02;45.80
64460;BME280;50828;53.756;21.140;2023-04-08T13:53:59;100649.58;;;15.06;45.61
64460;BME280;50828;53.756;21.140;2023-04-08T13:59:06;100647.95;;;15.10;45.37
64460;BME280;50828;53.756;21.140;2023-04-08T14:04:15;100641.17;;;15.15;44.57
64460;BME280;50828;53.756;21.140;2023-04-08T14:09:23;100634.68;;;15.17;44.32
64460;BME280;50828;53.756;21.140;2023-04-08T14:14:31;100630.60;;;15.20;44.35
64460;BME280;50828;53.756;21.140;2023-04-08T14:19:39;100624.08;;;15.23;44.16
64460;BME280;50828;53.756;21.140;2023-04-08T14:24:47;100621.74;;;15.31;44.07
64460;BME280;50828;53.756;21.140;2023-04-08T14:29:57;100612.52;;;15.34;43.81
64460;BME280;50828;53.756;21.140;2023-04-08T14:35:05;100611.77;;;15.41;43.02
64460;BME280;50828;53.756;21.140;2023-04-08T14:40:14;100610.67;;;15.45;43.16
64460;BME280;50828;53.756;21.140;2023-04-08T14:45:21;100607.33;;;15.48;43.02
64460;BME280;50828;53.756;21.140;2023-04-08T14:50:28;100605.79;;;15.51;43.26
64460;BME280;50828;53.756;21.140;2023-04-08T14:55:36;100606.73;;;15.53;43.38
64460;BME280;50828;53.756;21.140;2023-04-08T15:00:45;100602.27;;;15.53;42.98
64460;BME280;50828;53.756;21.140;2023-04-08T15:05:52;100601.31;;;15.55;43.04
64460;BME280;50828;53.756;21.140;2023-04-08T15:11:00;100600.59;;;15.55;42.86
64460;BME280;50828;53.756;21.140;2023-04-08T15:16:07;100600.73;;;15.56;41.96
64460;BME280;50828;53.756;21.140;2023-04-08T15:21:15;100597.91;;;15.55;41.22
64460;BME280;50828;53.756;21.140;2023-04-08T15:26:22;100589.95;;;15.55;40.88
64460;BME280;50828;53.756;21.140;2023-04-08T15:31:30;100595.14;;;15.54;40.54
64460;BME280;50828;53.756;21.140;2023-04-08T15:36:39;100594.46;;;15.53;40.83
64460;BME280;50828;53.756;21.140;2023-04-08T15:41:46;100593.15;;;15.51;40.83
64460;BME280;50828;53.756;21.140;2023-04-08T15:46:54;100593.63;;;15.49;40.45
64460;BME280;50828;53.756;21.140;2023-04-08T15:52:01;100589.52;;;15.46;40.44
64460;BME280;50828;53.756;21.140;2023-04-08T15:57:08;100591.96;;;15.43;39.75
64460;BME280;50828;53.756;21.140;2023-04-08T16:02:16;100593.48;;;15.41;40.37
64460;BME280;50828;53.756;21.140;2023-04-08T16:07:25;100594.50;;;15.39;40.51
64460;BME280;50828;53.756;21.140;2023-04-08T16:12:32;100600.80;;;15.37;40.57
64460;BME280;50828;53.756;21.140;2023-04-08T16:17:40;100600.48;;;15.33;40.65
64460;BME280;50828;53.756;21.140;2023-04-08T16:22:47;100599.77;;;15.30;40.88
64460;BME280;50828;53.756;21.140;2023-04-08T16:27:56;100601.64;;;15.25;40.84
64460;BME280;50828;53.756;21.140;2023-04-08T16:33:03;100601.54;;;15.20;41.00
64460;BME280;50828;53.756;21.140;2023-04-08T16:38:11;100601.61;;;15.11;41.14
64460;BME280;50828;53.756;21.140;2023-04-08T16:43:20;100609.02;;;15.05;41.26
64460;BME280;50828;53.756;21.140;2023-04-08T16:48:29;100612.66;;;14.96;41.35
64460;BME280;50828;53.756;21.140;2023-04-08T16:53:37;100616.67;;;14.87;41.41
64460;BME280;50828;53.756;21.140;2023-04-08T16:58:44;100622.08;;;14.78;41.76
64460;BME280;50828;53.756;21.140;2023-04-08T17:03:51;100625.21;;;14.69;41.85
64460;BME280;50828;53.756;21.140;2023-04-08T17:09:00;100627.63;;;14.59;42.14
64460;BME280;50828;53.756;21.140;2023-04-08T17:14:09;100633.77;;;14.49;42.45
64460;BME280;50828;53.756;21.140;2023-04-08T17:19:19;100634.59;;;14.39;42.67
64460;BME280;50828;53.756;21.140;2023-04-08T17:24:28;100638.86;;;14.31;43.01
64460;BME280;50828;53.756;21.140;2023-04-08T17:29:37;100637.46;;;14.19;43.19
64460;BME280;50828;53.756;21.140;2023-04-08T17:34:45;100645.39;;;14.12;43.30
64460;BME280;50828;53.756;21.140;2023-04-08T17:39:54;100648.65;;;14.03;43.83
64460;BME280;50828;53.756;21.140;2023-04-08T17:45:03;100648.11;;;13.92;44.39
64460;BME280;50828;53.756;21.140;2023-04-08T17:50:13;100653.96;;;13.80;44.75
64460;BME280;50828;53.756;21.140;2023-04-08T17:55:24;100657.58;;;13.66;45.37
64460;BME280;50828;53.756;21.140;2023-04-08T18:00:33;100659.42;;;13.52;45.94
64460;BME280;50828;53.756;21.140;2023-04-08T18:05:40;100666.29;;;13.41;46.42
64460;BME280;50828;53.756;21.140;2023-04-08T18:10:47;100665.90;;;13.29;46.77
64460;BME280;50828;53.756;21.140;2023-04-08T18:15:56;100668.39;;;13.16;47.47
64460;BME280;50828;53.756;21.140;2023-04-08T18:21:05;100669.72;;;13.05;47.78
64460;BME280;50828;53.756;21.140;2023-04-08T18:26:13;100669.42;;;12.90;48.30
64460;BME280;50828;53.756;21.140;2023-04-08T18:31:20;100667.40;;;12.79;48.67
64460;BME280;50828;53.756;21.140;2023-04-08T18:36:29;100674.16;;;12.69;49.15
64460;BME280;50828;53.756;21.140;2023-04-08T18:41:37;100677.98;;;12.58;49.35
64460;BME280;50828;53.756;21.140;2023-04-08T18:46:45;100679.36;;;12.45;49.67
64460;BME280;50828;53.756;21.140;2023-04-08T18:51:53;100688.20;;;12.36;49.77
64460;BME280;50828;53.756;21.140;2023-04-08T18:57:07;100689.34;;;12.24;50.24
64460;BME280;50828;53.756;21.140;2023-04-08T19:02:17;100687.66;;;12.13;50.22
64460;BME280;50828;53.756;21.140;2023-04-08T19:07:28;100684.77;;;12.00;50.20
64460;BME280;50828;53.756;21.140;2023-04-08T19:12:36;100685.30;;;11.90;50.56
64460;BME280;50828;53.756;21.140;2023-04-08T19:17:45;100685.06;;;11.77;50.33
64460;BME280;50828;53.756;21.140;2023-04-08T19:22:52;100689.34;;;11.66;50.66
64460;BME280;50828;53.756;21.140;2023-04-08T19:28:02;100688.58;;;11.52;50.54
64460;BME280;50828;53.756;21.140;2023-04-08T19:33:13;100689.90;;;11.39;49.95
64460;BME280;50828;53.756;21.140;2023-04-08T19:38:21;100685.95;;;11.26;50.23
64460;BME280;50828;53.756;21.140;2023-04-08T19:43:28;100696.07;;;11.18;50.11
64460;BME280;50828;53.756;21.140;2023-04-08T19:48:36;100690.75;;;11.09;50.40
64460;BME280;50828;53.756;21.140;2023-04-08T19:53:43;100686.59;;;11.01;50.92
64460;BME280;50828;53.756;21.140;2023-04-08T19:58:51;100684.29;;;10.96;51.93
64460;BME280;50828;53.756;21.140;2023-04-08T20:03:58;100681.98;;;10.91;52.87
64460;BME280;50828;53.756;21.140;2023-04-08T20:09:06;100683.49;;;10.88;53.69
64460;BME280;50828;53.756;21.140;2023-04-08T20:14:13;100684.77;;;10.87;54.12
64460;BME280;50828;53.756;21.140;2023-04-08T20:19:21;100680.97;;;10.85;54.90
64460;BME280;50828;53.756;21.140;2023-04-08T20:24:28;100688.90;;;10.84;55.26
64460;BME280;50828;53.756;21.140;2023-04-08T20:29:36;100693.35;;;10.83;55.60
64460;BME280;50828;53.756;21.140;2023-04-08T20:34:44;100689.19;;;10.80;55.88
64460;BME280;50828;53.756;21.140;2023-04-08T20:39:51;100691.39;;;10.78;56.08
64460;BME280;50828;53.756;21.140;2023-04-08T20:44:58;100691.16;;;10.74;56.60
64460;BME280;50828;53.756;21.140;2023-04-08T20:50:08;100699.36;;;10.71;56.90
64460;BME280;50828;53.756;21.140;2023-04-08T20:55:16;100700.87;;;10.68;56.95
64460;BME280;50828;53.756;21.140;2023-04-08T21:00:23;100701.53;;;10.63;57.09
64460;BME280;50828;53.756;21.140;2023-04-08T21:05:30;100698.40;;;10.62;57.29
64460;BME280;50828;53.756;21.140;2023-04-08T21:10:41;100697.92;;;10.60;57.33
64460;BME280;50828;53.756;21.140;2023-04-08T21:15:49;100700.57;;;10.60;57.58
64460;BME280;50828;53.756;21.140;2023-04-08T21:20:56;100699.70;;;10.60;57.55
64460;BME280;50828;53.756;21.140;2023-04-08T21:26:03;100700.33;;;10.62;57.58
64460;BME280;50828;53.756;21.140;2023-04-08T21:31:15;100702.59;;;10.63;57.69
64460;BME280;50828;53.756;21.140;2023-04-08T21:36:23;100698.77;;;10.62;57.90
64460;BME280;50828;53.756;21.140;2023-04-08T21:41:32;100703.42;;;10.65;57.85
64460;BME280;50828;53.756;21.140;2023-04-08T21:46:39;100696.20;;;10.65;57.94
64460;BME280;50828;53.756;21.140;2023-04-08T21:51:46;100688.83;;;10.64;57.91
64460;BME280;50828;53.756;21.140;2023-04-08T21:56:53;100689.23;;;10.62;58.22
64460;BME280;50828;53.756;21.140;2023-04-08T22:02:01;100686.37;;;10.59;58.50
64460;BME280;50828;53.756;21.140;2023-04-08T22:07:09;100685.70;;;10.52;58.76
64460;BME280;50828;53.756;21.140;2023-04-08T22:12:16;100683.83;;;10.44;59.05
64460;BME280;50828;53.756;21.140;2023-04-08T22:17:23;100679.69;;;10.35;59.35
64460;BME280;50828;53.756;21.140;2023-04-08T22:22:31;100674.84;;;10.25;59.45
64460;BME280;50828;53.756;21.140;2023-04-08T22:27:38;100674.92;;;10.17;59.47
64460;BME280;50828;53.756;21.140;2023-04-08T22:32:45;100671.39;;;10.10;59.64
64460;BME280;50828;53.756;21.140;2023-04-08T22:37:52;100668.91;;;10.05;59.60
64460;BME280;50828;53.756;21.140;2023-04-08T22:43:00;100668.17;;;10.01;59.58
64460;BME280;50828;53.756;21.140;2023-04-08T22:48:07;100669.35;;;9.97;59.73
64460;BME280;50828;53.756;21.140;2023-04-08T22:53:14;100671.01;;;9.94;59.68
64460;BME280;50828;53.756;21.140;2023-04-08T22:58:21;100660.59;;;9.83;59.73
64460;BME280;50828;53.756;21.140;2023-04-08T23:03:28;100670.88;;;9.86;59.77
64460;BME280;50828;53.756;21.140;2023-04-08T23:08:36;100679.08;;;9.83;59.73
64460;BME280;50828;53.756;21.140;2023-04-08T23:13:43;100678.32;;;9.78;60.00
64460;BME280;50828;53.756;21.140;2023-04-08T23:18:50;100681.05;;;9.75;60.05
64460;BME280;50828;53.756;21.140;2023-04-08T23:23:58;100681.86;;;9.70;60.05
64460;BME280;50828;53.756;21.140;2023-04-08T23:29:05;100682.01;;;9.65;60.20
64460;BME280;50828;53.756;21.140;2023-04-08T23:34:12;100681.43;;;9.60;60.32
64460;BME280;50828;53.756;21.140;2023-04-08T23:39:19;100680.15;;;9.55;60.30
64460;BME280;50828;53.756;21.140;2023-04-08T23:44:27;100680.63;;;9.51;60.74
64460;BME280;50828;53.756;21.140;2023-04-08T23:49:34;100674.23;;;9.47;60.78
64460;BME280;50828;53.756;21.140;2023-04-08T23:54:41;100665.30;;;9.45;61.01
64460;BME280;50828;53.756;21.140;2023-04-08T23:59:48;100668.29;;;9.46;61.17
